SGEN/ENO METAR and TAF weather

Enter ICAO airport designator
Station Type Date Time Source
SGEN METAR 2021/02/26 21:00 UTC NOAA

SGEN 262100Z VRB03KT 9999 SCT030 33/18 Q1008


Station Type Date Time Source
SGEN Decoded METAR 2021/02/26 21:00 UTC NOAA

Encarnacion, Paraguay (SGEN) 27-19S 055-50W 91M
Feb 26, 2021 - 04:00 PM EST / 2021.02.26 2100 UTC
Wind: Variable at 3 MPH (3 KT):0
Visibility: greater than 7 mile(s):0
Sky conditions: partly cloudy
Temperature: 91 F (33 C)
Dew Point: 64 F (18 C)
Relative Humidity: 41%
Pressure (altimeter): 29.77 in. Hg (1008 hPa)
ob: SGEN 262100Z VRB03KT 9999 SCT030 33/18 Q1008
cycle: 21

Station Type Date Time Source
SGEN TAF 2021/02/26 18:00 UTC NOAA

TAF SGEN 261525Z 2618/2718 09008KT CAVOK TX33/2618Z TN21/2709Z PROB30
TEMPO 2700/2703 00000KT 8000 NSC

Example: see airport list